createdAt,value
2023-02-24T00:02:06.090Z,15.00
2023-02-24T00:05:03.831Z,13.65
2023-02-24T00:07:44.262Z,13.88
2023-02-24T00:10:11.789Z,15.43
2023-02-24T00:12:38.546Z,14.32
2023-02-24T00:15:05.689Z,12.88
2023-02-24T00:17:32.262Z,13.65
2023-02-24T00:19:58.922Z,13.52
2023-02-24T00:27:36.000Z,13.90
2023-02-24T00:30:05.254Z,13.27
2023-02-24T00:36:26.032Z,12.98
2023-02-24T00:39:09.659Z,13.67
2023-02-24T00:41:44.732Z,13.75
2023-02-24T00:44:14.548Z,13.50
2023-02-24T00:46:44.764Z,12.10
2023-02-24T00:49:17.331Z,13.23
2023-02-24T00:51:58.278Z,13.60
2023-02-24T00:54:28.289Z,13.00
2023-02-24T00:56:55.797Z,13.13
2023-02-24T00:59:24.066Z,13.00
2023-02-24T01:02:21.609Z,12.30
2023-02-24T01:05:01.264Z,12.50
2023-02-24T01:07:33.226Z,13.05
2023-02-24T01:10:01.045Z,11.98
2023-02-24T01:12:49.622Z,12.40
2023-02-24T01:15:22.492Z,12.85
2023-02-24T01:17:49.233Z,13.45
2023-02-24T01:20:16.941Z,13.18
2023-02-24T01:22:45.956Z,12.55
2023-02-24T01:25:12.980Z,12.73
2023-02-24T01:27:42.394Z,12.05
2023-02-24T01:30:15.803Z,12.48
2023-02-24T01:32:43.635Z,12.88
2023-02-24T01:35:12.073Z,12.20
2023-02-24T01:37:50.636Z,12.05
2023-02-24T01:40:38.259Z,12.55
2023-02-24T01:43:08.786Z,11.48
2023-02-24T01:45:40.162Z,12.65
2023-02-24T01:48:10.016Z,12.15
2023-02-24T01:50:38.103Z,11.43
2023-02-24T01:53:06.618Z,11.50
2023-02-24T01:55:49.943Z,12.07
2023-02-24T01:58:29.357Z,11.75
2023-02-24T02:00:57.850Z,12.50
2023-02-24T02:03:35.264Z,12.00
2023-02-24T02:06:17.750Z,12.05
2023-02-24T02:09:09.906Z,11.70
2023-02-24T02:11:49.948Z,11.48
2023-02-24T02:14:19.657Z,11.18
2023-02-24T02:17:04.830Z,10.15
2023-02-24T02:19:43.516Z,11.05
2023-02-24T02:22:26.960Z,11.20
2023-02-24T02:42:28.311Z,9.85
2023-02-24T02:45:07.810Z,9.63
2023-02-24T02:47:43.405Z,9.48
2023-02-24T02:50:29.949Z,10.00
2023-02-24T02:52:59.342Z,10.05
2023-02-24T02:55:30.124Z,10.75
2023-02-24T02:57:59.154Z,9.27
2023-02-24T03:00:35.278Z,10.45
2023-02-24T03:03:10.319Z,9.50
2023-02-24T03:06:29.624Z,9.77
2023-02-24T03:09:23.940Z,9.52
2023-02-24T03:11:59.431Z,9.13
2023-02-24T03:14:37.217Z,9.45
2023-02-24T03:17:21.527Z,9.15
2023-02-24T03:20:00.041Z,9.43
2023-02-24T03:22:43.525Z,9.23
2023-02-24T03:25:10.711Z,9.32
2023-02-24T03:27:42.941Z,8.88
2023-02-24T03:30:19.186Z,9.23
2023-02-24T03:33:09.057Z,9.82
2023-02-24T03:36:01.879Z,9.10
2023-02-24T03:38:50.427Z,9.55
2023-02-24T03:41:17.399Z,9.82
2023-02-24T03:43:47.841Z,9.32
2023-02-24T03:46:17.135Z,9.55
2023-02-24T03:48:48.095Z,9.70
2023-02-24T03:51:20.614Z,8.68
2023-02-24T03:56:46.913Z,9.52
2023-02-24T03:59:56.134Z,9.50
2023-02-24T04:02:28.792Z,9.82
2023-02-24T04:08:41.942Z,9.65
2023-02-24T04:11:30.690Z,9.07
2023-02-24T04:14:06.548Z,9.65
2023-02-24T04:16:48.258Z,9.23
2023-02-24T04:19:19.813Z,9.32
2023-02-24T04:21:50.642Z,10.57
2023-02-24T04:27:03.262Z,9.38
2023-02-24T04:29:35.882Z,10.15
2023-02-24T04:32:47.040Z,10.30
2023-02-24T04:46:23.450Z,10.85
2023-02-24T04:48:51.069Z,10.40
2023-02-24T04:51:21.021Z,10.95
2023-02-24T04:53:49.910Z,10.23
2023-02-24T04:56:18.653Z,11.25
2023-02-24T04:58:46.440Z,10.32
2023-02-24T05:01:13.364Z,10.55
2023-02-24T05:03:42.761Z,11.07
2023-02-24T05:06:17.728Z,11.30
2023-02-24T05:08:52.466Z,11.63
2023-02-24T05:11:19.620Z,11.07
2023-02-24T05:14:09.409Z,11.23
2023-02-24T05:17:02.263Z,10.85
2023-02-24T05:19:53.373Z,10.10
2023-02-24T05:22:22.919Z,11.43
2023-02-24T05:24:50.159Z,10.73
2023-02-24T05:27:17.376Z,11.40
2023-02-24T05:29:44.184Z,10.43
2023-02-24T05:35:07.254Z,11.30
2023-02-24T05:37:38.869Z,11.43
2023-02-24T05:40:06.115Z,11.07
2023-02-24T05:43:22.476Z,11.25
2023-02-24T05:46:56.029Z,10.98
2023-02-24T05:49:27.016Z,10.90
2023-02-24T05:51:56.665Z,12.10
2023-02-24T05:54:25.837Z,11.95
2023-02-24T05:56:52.502Z,12.18
2023-02-24T05:59:21.525Z,13.02
2023-02-24T06:02:09.532Z,13.20
2023-02-24T06:04:45.636Z,13.70
2023-02-24T06:07:19.338Z,13.00
2023-02-24T06:09:49.967Z,13.10
2023-02-24T06:12:46.270Z,13.70
2023-02-24T06:15:50.028Z,13.27
2023-02-24T06:21:05.653Z,13.35
2023-02-24T06:23:33.841Z,13.38
2023-02-24T06:26:04.586Z,13.23
2023-02-24T06:28:31.964Z,13.32
2023-02-24T06:30:58.613Z,13.15
2023-02-24T06:33:27.071Z,13.60
2023-02-24T06:35:53.781Z,13.68
2023-02-24T06:38:20.603Z,13.98
2023-02-24T06:40:47.586Z,15.10
2023-02-24T06:43:14.187Z,14.55
2023-02-24T06:45:41.128Z,14.55
2023-02-24T06:48:09.159Z,17.37
2023-02-24T06:50:35.763Z,17.35
2023-02-24T06:53:03.828Z,16.77
2023-02-24T06:55:37.051Z,16.98
2023-02-24T08:18:12.551Z,15.13
2023-02-24T08:21:02.113Z,14.15
2023-02-24T08:23:30.292Z,15.50
2023-02-24T08:25:57.319Z,15.23
2023-02-24T08:28:27.057Z,15.63
2023-02-24T08:30:53.720Z,16.35
2023-02-24T08:33:23.012Z,14.95
2023-02-24T08:36:01.133Z,14.98
2023-02-24T08:38:40.475Z,15.23
2023-02-24T08:41:17.634Z,14.52
2023-02-24T08:43:46.448Z,15.00
2023-02-24T08:46:13.399Z,15.70
2023-02-24T08:49:10.975Z,16.27
2023-02-24T08:51:53.129Z,14.63
2023-02-24T08:54:27.299Z,15.10
2023-02-24T08:56:56.369Z,14.52
2023-02-24T08:59:38.441Z,15.77
2023-02-24T09:02:29.465Z,15.52
2023-02-24T09:05:03.770Z,14.68
2023-02-24T09:10:19.589Z,14.82
2023-02-24T09:12:46.746Z,15.35
2023-02-24T09:15:16.877Z,14.43
2023-02-24T09:17:45.132Z,14.23
2023-02-24T09:20:27.475Z,14.55
2023-02-24T09:23:10.895Z,14.30
2023-02-24T09:26:11.030Z,14.75
2023-02-24T09:28:48.577Z,14.48
2023-02-24T09:31:19.133Z,13.75
2023-02-24T09:33:51.036Z,14.15
2023-02-24T09:36:30.162Z,15.25
2023-02-24T09:39:02.192Z,15.38
2023-02-24T09:41:56.642Z,13.93
2023-02-24T09:44:34.406Z,13.55
2023-02-24T09:47:13.465Z,14.35
2023-02-24T09:49:56.328Z,14.02
2023-02-24T09:52:39.796Z,14.25
2023-02-24T09:55:27.523Z,14.38
2023-02-24T09:58:48.041Z,14.73
2023-02-24T10:01:45.621Z,13.57
2023-02-24T10:04:20.644Z,14.52
2023-02-24T10:07:23.716Z,14.38
2023-02-24T10:15:59.141Z,14.43
2023-02-24T10:18:30.884Z,15.02
2023-02-24T10:21:10.268Z,15.02
2023-02-24T10:24:02.606Z,14.15
2023-02-24T10:27:16.412Z,15.23
2023-02-24T10:30:19.601Z,15.93
2023-02-24T10:32:58.935Z,15.32
2023-02-24T10:35:33.728Z,14.80
2023-02-24T10:38:28.675Z,15.45
2023-02-24T10:41:17.481Z,14.77
2023-02-24T10:43:56.221Z,16.40
2023-02-24T10:46:38.583Z,16.37
2023-02-24T10:49:11.835Z,15.23
2023-02-24T10:51:45.245Z,15.33
2023-02-24T10:54:22.931Z,14.65
2023-02-24T10:57:18.105Z,15.20
2023-02-24T11:00:18.394Z,14.23
2023-02-24T11:03:10.330Z,16.23
2023-02-24T11:06:05.025Z,14.77
2023-02-24T11:08:48.468Z,15.93
2023-02-24T11:11:54.610Z,14.50
2023-02-24T11:14:39.822Z,15.73
2023-02-24T11:17:20.319Z,15.32
2023-02-24T11:19:49.586Z,15.43
2023-02-24T11:22:41.902Z,16.02
2023-02-24T11:25:41.042Z,16.67
2023-02-24T11:28:22.808Z,16.05
2023-02-24T11:31:02.181Z,16.35
2023-02-24T11:33:47.383Z,16.00
2023-02-24T11:36:33.274Z,15.77
2023-02-24T11:39:24.051Z,16.95
2023-02-24T11:42:15.166Z,15.95
2023-02-24T11:45:09.358Z,16.40
2023-02-24T11:47:45.388Z,17.58
2023-02-24T11:54:23.823Z,16.58
2023-02-24T11:56:55.706Z,16.33
2023-02-24T11:59:58.494Z,15.88
2023-02-24T12:02:45.066Z,15.95
2023-02-24T12:05:16.950Z,15.90
2023-02-24T12:07:58.749Z,16.02
2023-02-24T12:10:31.315Z,16.05
2023-02-24T12:13:22.497Z,16.17
2023-02-24T12:15:54.733Z,15.27
2023-02-24T12:18:30.848Z,16.15
2023-02-24T12:21:03.490Z,16.62
2023-02-24T12:23:37.588Z,15.85
2023-02-24T12:26:10.350Z,15.55
2023-02-24T12:28:50.078Z,15.60
2023-02-24T12:31:38.056Z,14.87
2023-02-24T12:34:23.305Z,15.75
2023-02-24T12:37:35.094Z,16.05
2023-02-24T12:40:40.479Z,15.77
2023-02-24T12:43:16.126Z,15.63
2023-02-24T12:45:48.444Z,14.55
2023-02-24T12:48:34.898Z,16.02
2023-02-24T12:52:04.013Z,15.40
2023-02-24T12:55:22.303Z,15.20
2023-02-24T12:58:37.583Z,14.07
2023-02-24T13:01:36.970Z,15.00
2023-02-24T13:04:24.411Z,14.80
2023-02-24T13:07:15.339Z,15.93
2023-02-24T13:09:55.890Z,14.87
2023-02-24T13:12:33.777Z,15.65
2023-02-24T13:15:03.081Z,15.50
2023-02-24T13:17:30.087Z,14.90
2023-02-24T13:19:56.888Z,14.50
2023-02-24T13:22:44.828Z,14.32
2023-02-24T13:25:21.580Z,14.00
2023-02-24T13:28:00.523Z,15.13
2023-02-24T13:30:50.006Z,12.90
2023-02-24T13:33:19.528Z,13.95
2023-02-24T13:35:52.471Z,14.02
2023-02-24T13:38:23.932Z,14.43
2023-02-24T13:40:51.370Z,14.18
2023-02-24T13:43:28.877Z,13.85
2023-02-24T13:46:02.400Z,13.18
2023-02-24T13:48:52.241Z,13.95
2023-02-24T13:51:24.870Z,13.55
2023-02-24T13:54:20.194Z,14.00
2023-02-24T13:57:05.842Z,16.20
2023-02-24T13:59:44.260Z,13.85
2023-02-24T14:02:11.138Z,14.15
2023-02-24T14:04:45.103Z,13.45
2023-02-24T14:07:17.918Z,12.63
2023-02-24T14:09:48.040Z,13.30
2023-02-24T14:12:19.947Z,12.48
2023-02-24T14:14:47.930Z,13.02
2023-02-24T14:17:28.672Z,13.25
2023-02-24T14:20:06.678Z,13.62
2023-02-24T14:22:34.737Z,12.65
2023-02-24T14:25:03.239Z,13.15
2023-02-24T14:27:30.425Z,13.40
2023-02-24T14:29:57.414Z,13.48
2023-02-24T14:32:27.284Z,13.25
2023-02-24T14:34:55.461Z,14.52
2023-02-24T14:37:25.945Z,13.38
2023-02-24T14:39:58.568Z,15.02
2023-02-24T14:42:29.953Z,14.60
2023-02-24T14:44:59.334Z,13.55
2023-02-24T14:47:28.881Z,14.52
2023-02-24T14:50:02.331Z,13.75
2023-02-24T14:52:38.556Z,13.57
2023-02-24T14:55:16.591Z,14.07
2023-02-24T14:57:51.379Z,12.93
2023-02-24T15:00:24.281Z,14.25
2023-02-24T15:03:06.729Z,13.45
2023-02-24T15:05:33.686Z,13.68
2023-02-24T15:08:02.914Z,13.07
2023-02-24T15:10:31.272Z,13.32
2023-02-24T15:13:09.398Z,13.25
2023-02-24T15:15:42.593Z,14.40
2023-02-24T15:18:24.129Z,14.32
2023-02-24T15:21:04.270Z,14.40
2023-02-24T15:23:33.616Z,13.77
2023-02-24T15:26:00.573Z,13.60
2023-02-24T15:28:32.823Z,12.65
2023-02-24T15:31:04.835Z,13.27
2023-02-24T15:33:38.464Z,13.17
2023-02-24T15:36:17.950Z,14.32
2023-02-24T15:38:45.463Z,14.38
2023-02-24T15:41:14.085Z,14.35
2023-02-24T15:43:45.557Z,14.80
2023-02-24T15:46:21.427Z,14.87
2023-02-24T15:48:50.257Z,14.52
2023-02-24T15:51:34.115Z,14.45
2023-02-24T15:54:02.643Z,15.20
2023-02-24T15:56:32.133Z,15.32
2023-02-24T15:59:06.055Z,14.43
2023-02-24T16:01:33.688Z,16.48
2023-02-24T16:04:00.881Z,15.98
2023-02-24T16:06:29.011Z,16.10
2023-02-24T16:08:57.275Z,16.25
2023-02-24T16:11:31.890Z,16.67
2023-02-24T16:14:00.107Z,16.05
2023-02-24T16:16:27.327Z,15.25
2023-02-24T16:18:54.049Z,16.05
2023-02-24T16:21:20.724Z,16.42
2023-02-24T16:23:47.494Z,16.55
2023-02-24T16:26:23.383Z,16.08
2023-02-24T16:28:57.707Z,16.25
2023-02-24T16:31:26.630Z,16.08
2023-02-24T16:33:55.660Z,16.55
2023-02-24T16:36:25.324Z,15.75
2023-02-24T16:38:52.324Z,15.25
2023-02-24T16:41:19.197Z,15.07
2023-02-24T16:43:45.831Z,15.50
2023-02-24T16:46:15.934Z,14.27
2023-02-24T16:48:46.062Z,14.48
2023-02-24T16:51:14.137Z,15.15
2023-02-24T16:53:41.250Z,14.65
2023-02-24T16:56:08.181Z,14.85
2023-02-24T16:58:34.830Z,14.45
2023-02-24T17:01:02.814Z,14.85
2023-02-24T17:03:37.967Z,15.90
2023-02-24T17:06:04.679Z,17.92
2023-02-24T17:08:31.674Z,15.57
2023-02-24T17:10:58.357Z,15.65
2023-02-24T17:13:24.975Z,15.30
2023-02-24T17:15:57.074Z,16.83
2023-02-24T17:18:25.043Z,23.83
2023-02-24T17:20:51.863Z,22.87
2023-02-24T17:23:20.013Z,19.95
2023-02-24T17:25:52.001Z,17.58
2023-02-24T17:28:18.914Z,16.03
2023-02-24T17:30:45.895Z,15.63
2023-02-24T17:33:14.334Z,18.15
2023-02-24T17:35:41.963Z,16.40
2023-02-24T17:38:16.669Z,18.12
2023-02-24T17:40:44.966Z,21.60
2023-02-24T17:43:11.955Z,22.20
2023-02-24T17:45:43.081Z,20.42
2023-02-24T17:48:10.136Z,19.83
2023-02-24T17:50:36.690Z,18.55
2023-02-24T17:53:03.898Z,18.00
2023-02-24T17:55:30.449Z,16.83
2023-02-24T17:57:59.708Z,17.85
2023-02-24T18:00:27.463Z,19.55
2023-02-24T18:02:54.450Z,18.08
2023-02-24T18:05:23.495Z,17.92
2023-02-24T18:07:50.345Z,20.08
2023-02-24T18:10:17.633Z,20.12
2023-02-24T18:12:44.278Z,19.95
2023-02-24T18:15:11.317Z,21.05
2023-02-24T18:17:38.808Z,18.45
2023-02-24T18:20:06.915Z,17.23
2023-02-24T18:22:33.899Z,16.40
2023-02-24T18:25:01.122Z,13.70
2023-02-24T18:27:27.938Z,13.00
2023-02-24T18:29:54.636Z,12.60
2023-02-24T18:32:21.400Z,11.90
2023-02-24T18:34:48.282Z,11.32
2023-02-24T18:37:15.165Z,12.00
2023-02-24T18:39:41.746Z,12.20
2023-02-24T18:42:08.352Z,11.12
2023-02-24T18:44:35.099Z,10.25
2023-02-24T18:47:01.839Z,11.25
2023-02-24T18:49:28.486Z,11.25
2023-02-24T18:51:55.096Z,11.27
2023-02-24T18:54:21.702Z,11.73
2023-02-24T18:56:48.264Z,12.07
2023-02-24T18:59:14.896Z,12.23
2023-02-24T19:01:41.550Z,13.70
2023-02-24T19:04:08.711Z,11.60
2023-02-24T19:06:36.468Z,10.43
2023-02-24T19:09:12.238Z,11.45
2023-02-24T19:11:40.297Z,11.43
2023-02-24T19:14:07.826Z,10.77
2023-02-24T19:16:36.391Z,11.00
2023-02-24T19:19:03.626Z,11.52
2023-02-24T19:21:31.983Z,12.37
2023-02-24T19:24:03.911Z,10.90
2023-02-24T19:26:30.839Z,11.63
2023-02-24T19:28:58.433Z,10.10
2023-02-24T19:31:30.972Z,11.27
2023-02-24T19:34:03.947Z,12.57
2023-02-24T19:38:58.071Z,11.18
2023-02-24T19:41:24.690Z,11.12
2023-02-24T19:43:51.274Z,10.73
2023-02-24T19:46:18.319Z,11.10
2023-02-24T19:48:46.006Z,11.93
2023-02-24T19:51:16.098Z,12.02
2023-02-24T19:53:42.829Z,11.55
2023-02-24T19:56:12.540Z,11.38
2023-02-24T19:58:39.351Z,11.48
2023-02-24T20:01:11.791Z,10.80
2023-02-24T20:03:43.358Z,10.45
2023-02-24T20:06:25.762Z,11.27
2023-02-24T20:08:53.464Z,11.02
2023-02-24T20:15:19.512Z,11.05
2023-02-24T20:17:47.295Z,11.60
2023-02-24T20:20:16.000Z,11.43
2023-02-24T20:22:42.870Z,11.07
2023-02-24T20:25:09.588Z,10.82
2023-02-24T20:27:36.198Z,12.45
2023-02-24T20:30:02.767Z,10.95
2023-02-24T20:32:29.444Z,10.85
2023-02-24T20:34:56.279Z,10.90
2023-02-24T20:37:22.986Z,11.30
2023-02-24T20:39:53.840Z,10.70
2023-02-24T20:42:20.614Z,11.65
2023-02-24T20:44:47.197Z,11.43
2023-02-24T20:47:13.712Z,10.50
2023-02-24T20:49:40.382Z,11.10
2023-02-24T20:52:07.098Z,12.13
2023-02-24T20:54:33.767Z,11.00
2023-02-24T20:57:00.375Z,10.90
2023-02-24T20:59:27.226Z,10.90
2023-02-24T21:01:56.547Z,12.65
2023-02-24T21:04:23.199Z,11.50
2023-02-24T21:06:51.863Z,11.93
2023-02-24T21:09:18.520Z,11.32
2023-02-24T21:11:45.115Z,10.77
2023-02-24T21:14:16.766Z,12.35
2023-02-24T21:16:46.092Z,11.57
2023-02-24T21:19:12.900Z,11.38
2023-02-24T21:21:39.442Z,11.60
2023-02-24T21:24:06.446Z,11.27
2023-02-24T21:26:33.012Z,10.82
2023-02-24T21:28:59.685Z,10.88
2023-02-24T21:31:27.174Z,11.52
2023-02-24T21:33:54.774Z,10.30
2023-02-24T21:36:23.736Z,12.37
2023-02-24T21:38:54.093Z,10.95
2023-02-24T21:41:21.393Z,11.38
2023-02-24T21:43:51.308Z,11.70
2023-02-24T21:46:18.802Z,11.12
2023-02-24T21:48:45.812Z,11.30
2023-02-24T21:51:13.727Z,11.48
2023-02-24T21:53:47.905Z,11.20
2023-02-24T21:56:19.405Z,11.93
2023-02-24T22:01:43.876Z,11.50
2023-02-24T22:04:16.546Z,11.55
2023-02-24T22:06:44.877Z,13.23
2023-02-24T22:10:26.392Z,11.85
2023-02-24T22:16:24.611Z,11.43
2023-02-24T22:18:53.134Z,11.48
2023-02-24T22:21:22.763Z,11.85
2023-02-24T22:23:52.337Z,12.52
2023-02-24T22:26:20.104Z,11.63
2023-02-24T22:51:07.479Z,13.80
2023-02-24T22:53:38.028Z,13.25
2023-02-24T22:56:06.219Z,12.63
2023-02-24T22:58:32.936Z,13.00
2023-02-24T23:00:59.974Z,13.32
2023-02-24T23:03:46.171Z,13.10
2023-02-24T23:06:16.234Z,12.55
2023-02-24T23:08:45.881Z,14.32
2023-02-24T23:11:20.396Z,13.52
2023-02-24T23:17:10.870Z,13.32
2023-02-24T23:19:54.112Z,13.25
2023-02-24T23:51:49.013Z,14.13
2023-02-24T23:54:17.954Z,13.25
2023-02-24T23:56:44.668Z,12.37
2023-02-24T23:59:11.956Z,13.02
